createdAt,value
2018-07-20T00:00:55.601Z,13.7
2018-07-20T00:01:57.594Z,13.7
2018-07-20T00:02:59.599Z,13.7
2018-07-20T00:04:01.919Z,13.6
2018-07-20T00:05:03.923Z,13.6
2018-07-20T00:06:06.232Z,13.6
2018-07-20T00:07:08.214Z,13.6
2018-07-20T00:08:11.062Z,13.6
2018-07-20T00:09:13.032Z,13.6
2018-07-20T00:10:15.012Z,13.6
2018-07-20T00:11:17.296Z,13.6
2018-07-20T00:12:19.292Z,13.6
2018-07-20T00:13:21.291Z,13.6
2018-07-20T00:14:23.277Z,13.6
2018-07-20T00:15:25.281Z,13.5
2018-07-20T00:16:27.275Z,13.5
2018-07-20T00:17:29.269Z,13.5
2018-07-20T00:18:31.272Z,13.5
2018-07-20T00:19:33.255Z,13.5
2018-07-20T00:20:35.535Z,13.5
2018-07-20T00:21:37.806Z,13.4
2018-07-20T00:22:39.804Z,13.5
2018-07-20T00:23:41.791Z,13.5
2018-07-20T00:24:44.066Z,13.5
2018-07-20T00:25:46.064Z,13.4
2018-07-20T00:26:48.046Z,13.4
2018-07-20T00:27:50.051Z,13.4
2018-07-20T00:28:52.044Z,13.4
2018-07-20T00:29:54.038Z,13.3
2018-07-20T00:30:56.029Z,13.3
2018-07-20T00:31:58.034Z,13.3
2018-07-20T00:33:00.030Z,13.3
2018-07-20T00:34:02.026Z,13.3
2018-07-20T00:35:04.753Z,13.2
2018-07-20T00:36:06.732Z,13.3
2018-07-20T00:37:09.111Z,13.3
2018-07-20T00:38:11.111Z,13.2
2018-07-20T00:39:13.377Z,13.3
2018-07-20T00:40:15.378Z,13.2
2018-07-20T00:41:17.374Z,13.2
2018-07-20T00:42:19.366Z,13.2
2018-07-20T00:43:21.374Z,13.2
2018-07-20T00:44:23.642Z,13.2
2018-07-20T00:45:25.636Z,13.1
2018-07-20T00:46:27.623Z,13.1
2018-07-20T00:47:29.620Z,13.1
2018-07-20T00:48:31.623Z,13.1
2018-07-20T00:49:33.615Z,13.1
2018-07-20T00:50:35.609Z,13.1
2018-07-20T00:51:37.614Z,13.1
2018-07-20T00:52:39.599Z,13.1
2018-07-20T00:53:41.592Z,13.1
2018-07-20T00:54:43.582Z,13.1
2018-07-20T00:55:45.585Z,13.1
2018-07-20T00:56:47.568Z,13
2018-07-20T00:57:49.563Z,13
2018-07-20T00:58:51.560Z,13
2018-07-20T00:59:53.545Z,13
2018-07-20T01:00:55.823Z,12.9
2018-07-20T01:01:58.097Z,13
2018-07-20T01:03:00.088Z,12.9
2018-07-20T01:04:02.089Z,12.9
2018-07-20T01:05:04.089Z,12.9
2018-07-20T01:06:06.085Z,13
2018-07-20T01:07:08.084Z,12.9
2018-07-20T01:08:10.349Z,12.9
2018-07-20T01:09:12.330Z,12.9
2018-07-20T01:10:14.323Z,13
2018-07-20T01:11:16.323Z,12.9
2018-07-20T01:12:18.309Z,12.8
2018-07-20T01:13:20.308Z,12.8
2018-07-20T01:14:22.687Z,12.9
2018-07-20T01:15:24.677Z,12.8
2018-07-20T01:16:26.677Z,12.8
2018-07-20T01:17:28.664Z,12.9
2018-07-20T01:18:30.658Z,12.8
2018-07-20T01:19:32.645Z,12.9
2018-07-20T01:20:34.939Z,12.9
2018-07-20T01:21:36.925Z,13
2018-07-20T01:22:39.194Z,13
2018-07-20T01:23:41.467Z,13
2018-07-20T01:24:43.458Z,12.9
2018-07-20T01:25:45.439Z,12.9
2018-07-20T01:26:47.431Z,12.9
2018-07-20T01:27:49.416Z,12.9
2018-07-20T01:28:51.422Z,12.9
2018-07-20T01:29:53.406Z,12.9
2018-07-20T01:30:55.400Z,12.9
2018-07-20T01:31:57.395Z,12.9
2018-07-20T01:32:59.384Z,12.9
2018-07-20T01:34:01.386Z,12.9
2018-07-20T01:35:03.381Z,12.9
2018-07-20T01:36:05.368Z,12.9
2018-07-20T01:37:07.362Z,12.9
2018-07-20T01:38:09.754Z,12.9
2018-07-20T01:39:11.748Z,12.9
2018-07-20T01:40:13.741Z,12.9
2018-07-20T01:41:15.733Z,12.9
2018-07-20T01:42:18.019Z,12.9
2018-07-20T01:43:20.007Z,12.9
2018-07-20T01:44:22.002Z,12.9
2018-07-20T01:45:24.266Z,12.9
2018-07-20T01:46:26.285Z,12.9
2018-07-20T01:47:28.261Z,12.8
2018-07-20T01:48:30.535Z,12.8
2018-07-20T01:49:32.537Z,12.8
2018-07-20T01:50:34.827Z,12.8
2018-07-20T01:51:36.816Z,12.8
2018-07-20T01:52:38.804Z,12.8
2018-07-20T01:53:40.808Z,12.8
2018-07-20T01:54:42.789Z,12.8
2018-07-20T01:55:44.784Z,12.8
2018-07-20T01:56:46.774Z,12.9
2018-07-20T01:57:48.757Z,12.9
2018-07-20T01:58:50.761Z,12.9
2018-07-20T01:59:52.754Z,12.9
2018-07-20T02:00:54.753Z,12.9
2018-07-20T02:01:57.016Z,12.8
2018-07-20T02:02:59.012Z,12.8
2018-07-20T02:04:01.005Z,12.8
2018-07-20T02:05:02.999Z,12.8
2018-07-20T02:06:05.261Z,12.8
2018-07-20T02:07:07.266Z,12.8
2018-07-20T02:08:09.542Z,12.8
2018-07-20T02:09:11.818Z,12.8
2018-07-20T02:10:14.114Z,12.7
2018-07-20T02:11:16.116Z,12.7
2018-07-20T02:12:18.112Z,12.7
2018-07-20T02:13:20.102Z,12.6
2018-07-20T02:14:22.092Z,12.7
2018-07-20T02:15:24.073Z,12.6
2018-07-20T02:16:26.070Z,12.6
2018-07-20T02:17:28.345Z,12.6
2018-07-20T02:18:30.612Z,12.5
2018-07-20T02:19:32.886Z,12.5
2018-07-20T02:20:35.269Z,12.5
2018-07-20T02:21:37.264Z,12.5
2018-07-20T02:22:39.268Z,12.4
2018-07-20T02:23:41.640Z,12.5
2018-07-20T02:24:44.214Z,12.5
2018-07-20T02:25:46.485Z,12.4
2018-07-20T02:26:48.489Z,12.4
2018-07-20T02:27:50.475Z,12.4
2018-07-20T02:28:52.745Z,12.4
2018-07-20T02:29:54.736Z,12.4
2018-07-20T02:30:57.105Z,12.4
2018-07-20T02:31:59.415Z,12.3
2018-07-20T02:33:01.692Z,12.3
2018-07-20T02:34:03.694Z,12.3
2018-07-20T02:35:05.678Z,12.3
2018-07-20T02:36:07.680Z,12.3
2018-07-20T02:37:09.678Z,12.3
2018-07-20T02:38:11.674Z,12.2
2018-07-20T02:39:13.697Z,12.3
2018-07-20T02:40:15.665Z,12.3
2018-07-20T02:41:17.668Z,12.2
2018-07-20T02:42:20.231Z,12.2
2018-07-20T02:43:22.606Z,12.2
2018-07-20T02:44:24.999Z,12.2
2018-07-20T02:45:27.270Z,12.1
2018-07-20T02:46:29.269Z,12.1
2018-07-20T02:47:31.264Z,12.1
2018-07-20T02:48:33.268Z,12.1
2018-07-20T02:49:35.263Z,12.1
2018-07-20T02:50:37.532Z,12.1
2018-07-20T02:51:39.834Z,12.1
2018-07-20T02:52:42.108Z,12.1
2018-07-20T02:53:44.104Z,12
2018-07-20T02:54:46.098Z,12.1
2018-07-20T02:55:48.369Z,12
2018-07-20T02:56:50.653Z,12
2018-07-20T02:57:52.939Z,12
2018-07-20T02:58:54.938Z,11.9
2018-07-20T02:59:57.310Z,11.9
2018-07-20T03:00:59.700Z,11.9
2018-07-20T03:02:02.360Z,11.9
2018-07-20T03:03:04.742Z,11.9
2018-07-20T03:04:07.310Z,11.9
2018-07-20T03:05:09.574Z,11.8
2018-07-20T03:06:11.571Z,11.8
2018-07-20T03:07:13.834Z,11.9
2018-07-20T03:08:16.168Z,11.9
2018-07-20T03:09:18.155Z,11.9
2018-07-20T03:10:20.426Z,11.9
2018-07-20T03:11:22.420Z,11.8
2018-07-20T03:12:24.694Z,11.9
2018-07-20T03:13:26.981Z,11.8
2018-07-20T03:14:28.977Z,11.8
2018-07-20T03:15:31.243Z,11.8
2018-07-20T03:16:33.515Z,11.8
2018-07-20T03:17:35.521Z,11.8
2018-07-20T03:18:37.514Z,11.8
2018-07-20T03:19:39.786Z,11.8
2018-07-20T03:20:41.783Z,11.8
2018-07-20T03:21:43.787Z,11.9
2018-07-20T03:22:45.782Z,11.8
2018-07-20T03:23:47.767Z,11.8
2018-07-20T03:24:49.767Z,11.8
2018-07-20T03:25:51.756Z,11.8
2018-07-20T03:26:53.747Z,11.8
2018-07-20T03:27:56.023Z,11.9
2018-07-20T03:28:58.301Z,11.9
2018-07-20T03:30:00.297Z,11.9
2018-07-20T03:31:02.857Z,11.8
2018-07-20T03:32:05.154Z,11.9
2018-07-20T03:33:07.807Z,11.9
2018-07-20T03:34:10.518Z,11.9
2018-07-20T03:35:12.897Z,11.9
2018-07-20T03:36:15.166Z,11.9
2018-07-20T03:37:17.169Z,11.9
2018-07-20T03:38:19.158Z,11.9
2018-07-20T03:39:21.429Z,11.9
2018-07-20T03:40:23.416Z,12
2018-07-20T03:41:25.414Z,12
2018-07-20T03:42:27.674Z,12
2018-07-20T03:43:29.665Z,12
2018-07-20T03:44:31.661Z,12
2018-07-20T03:45:33.641Z,12
2018-07-20T03:46:35.645Z,12
2018-07-20T03:47:37.636Z,12
2018-07-20T03:48:39.626Z,11.9
2018-07-20T03:49:41.614Z,12
2018-07-20T03:50:43.620Z,12
2018-07-20T03:51:45.900Z,12.1
2018-07-20T03:52:48.272Z,12
2018-07-20T03:53:50.267Z,12.1
2018-07-20T03:54:52.246Z,12.1
2018-07-20T03:55:54.543Z,12.1
2018-07-20T03:56:56.812Z,12.1
2018-07-20T03:57:58.815Z,12.1
2018-07-20T03:59:01.082Z,12.1
2018-07-20T04:00:03.640Z,12.2
2018-07-20T04:01:05.835Z,12.2
2018-07-20T04:02:07.816Z,12.2
2018-07-20T04:03:10.094Z,12.2
2018-07-20T04:04:12.745Z,12.2
2018-07-20T04:05:14.740Z,12.3
2018-07-20T04:06:16.722Z,12.3
2018-07-20T04:07:18.723Z,12.4
2018-07-20T04:08:20.713Z,12.4
2018-07-20T04:09:22.712Z,12.4
2018-07-20T04:10:24.992Z,12.5
2018-07-20T04:11:26.978Z,12.5
2018-07-20T04:12:29.276Z,12.5
2018-07-20T04:13:31.265Z,12.6
2018-07-20T04:14:33.270Z,12.6
2018-07-20T04:15:35.252Z,12.6
2018-07-20T04:16:37.244Z,12.6
2018-07-20T04:17:39.244Z,12.7
2018-07-20T04:18:41.226Z,12.7
2018-07-20T04:19:43.231Z,12.8
2018-07-20T04:20:45.504Z,12.8
2018-07-20T04:21:47.492Z,12.8
2018-07-20T04:22:49.489Z,12.8
2018-07-20T04:23:51.769Z,12.9
2018-07-20T04:24:53.765Z,12.9
2018-07-20T04:25:55.762Z,12.9
2018-07-20T04:26:58.137Z,13
2018-07-20T04:28:00.404Z,13.1
2018-07-20T04:29:02.397Z,13.1
2018-07-20T04:30:04.802Z,13.2
2018-07-20T04:31:07.170Z,13.2
2018-07-20T04:32:09.167Z,13.3
2018-07-20T04:33:11.544Z,13.4
2018-07-20T04:34:13.541Z,13.4
2018-07-20T04:35:15.522Z,13.5
2018-07-20T04:36:17.576Z,13.5
2018-07-20T04:37:19.523Z,13.5
2018-07-20T04:38:21.518Z,13.6
2018-07-20T04:39:23.501Z,13.6
2018-07-20T04:40:25.895Z,13.8
2018-07-20T04:41:28.449Z,13.9
2018-07-20T04:42:30.443Z,13.9
2018-07-20T04:43:32.447Z,14
2018-07-20T04:44:34.431Z,14.1
2018-07-20T04:45:36.810Z,14.1
2018-07-20T04:46:38.802Z,14.2
2018-07-20T04:47:40.807Z,14.2
2018-07-20T04:48:42.790Z,14.3
2018-07-20T04:49:44.789Z,14.3
2018-07-20T04:50:46.792Z,14.3
2018-07-20T04:51:48.777Z,14.3
2018-07-20T04:52:50.785Z,14.4
2018-07-20T04:53:53.059Z,14.5
2018-07-20T04:54:55.431Z,14.6
2018-07-20T04:55:57.810Z,14.6
2018-07-20T04:56:59.814Z,14.6
2018-07-20T04:58:02.428Z,14.6
2018-07-20T04:59:04.423Z,14.6
2018-07-20T05:00:06.417Z,14.5
2018-07-20T05:01:08.405Z,14.5
2018-07-20T05:02:10.400Z,14.5
2018-07-20T05:03:12.397Z,14.6
2018-07-20T05:04:14.385Z,14.6
2018-07-20T05:05:16.392Z,14.6
2018-07-20T05:06:18.386Z,14.7
2018-07-20T05:07:20.660Z,14.7
2018-07-20T05:08:22.663Z,14.8
2018-07-20T05:09:24.936Z,14.8
2018-07-20T05:10:26.933Z,14.8
2018-07-20T05:11:28.956Z,14.9
2018-07-20T05:12:30.928Z,15.1
2018-07-20T05:13:32.914Z,15.2
2018-07-20T05:14:34.908Z,15.3
2018-07-20T05:15:36.904Z,15.4
2018-07-20T05:16:39.168Z,15.4
2018-07-20T05:17:41.554Z,15.4
2018-07-20T05:18:43.545Z,15.4
2018-07-20T05:19:45.824Z,15.5
2018-07-20T05:20:47.805Z,15.5
2018-07-20T05:21:49.809Z,15.6
2018-07-20T05:22:52.189Z,15.6
2018-07-20T05:23:54.173Z,15.6
2018-07-20T05:24:56.843Z,15.6
2018-07-20T05:25:58.825Z,15.6
2018-07-20T05:27:00.826Z,15.7
2018-07-20T05:28:03.210Z,15.7
2018-07-20T05:29:05.209Z,15.7
2018-07-20T05:30:07.196Z,15.7
2018-07-20T05:31:09.213Z,15.8
2018-07-20T05:32:11.471Z,15.8
2018-07-20T05:33:13.471Z,15.8
2018-07-20T05:34:15.478Z,15.9
2018-07-20T05:35:17.475Z,15.9
2018-07-20T05:36:19.468Z,16
2018-07-20T05:37:21.477Z,16
2018-07-20T05:38:23.746Z,16.1
2018-07-20T05:39:26.042Z,16.1
2018-07-20T05:40:28.041Z,16.2
2018-07-20T05:41:30.033Z,16.2
2018-07-20T05:42:32.317Z,16.3
2018-07-20T05:43:34.700Z,16.3
2018-07-20T05:44:36.988Z,16.4
2018-07-20T05:45:39.250Z,16.4
2018-07-20T05:46:41.641Z,16.4
2018-07-20T05:47:43.633Z,16.5
2018-07-20T05:48:45.628Z,16.5
2018-07-20T05:49:47.627Z,16.5
2018-07-20T05:50:49.925Z,16.5
2018-07-20T05:51:52.585Z,16.6
2018-07-20T05:52:54.587Z,16.6
2018-07-20T05:53:56.873Z,16.6
2018-07-20T05:54:58.878Z,16.6
2018-07-20T05:56:01.170Z,16.6
2018-07-20T05:57:03.163Z,16.7
2018-07-20T05:58:05.175Z,16.7
2018-07-20T05:59:07.446Z,16.7
2018-07-20T06:00:09.444Z,16.7
2018-07-20T06:01:11.727Z,16.7
2018-07-20T06:02:13.725Z,16.8
2018-07-20T06:03:15.712Z,16.8
2018-07-20T06:04:17.709Z,16.9
2018-07-20T06:05:19.705Z,16.9
2018-07-20T06:06:22.003Z,17
2018-07-20T06:07:24.013Z,17
2018-07-20T06:08:26.012Z,17.2
2018-07-20T06:09:28.003Z,17.3
2018-07-20T06:10:30.018Z,17.4
2018-07-20T06:11:32.009Z,17.4
2018-07-20T06:12:34.391Z,17.4
2018-07-20T06:13:36.773Z,17.4
2018-07-20T06:14:38.758Z,17.5
2018-07-20T06:15:40.763Z,17.5
2018-07-20T06:16:43.147Z,17.6
2018-07-20T06:17:45.152Z,17.6
2018-07-20T06:18:47.144Z,17.7
2018-07-20T06:19:49.186Z,17.7
2018-07-20T06:20:51.154Z,17.7
2018-07-20T06:21:53.457Z,17.8
2018-07-20T06:22:55.755Z,17.8
2018-07-20T06:23:57.865Z,17.8
2018-07-20T06:24:59.751Z,17.8
2018-07-20T06:26:02.132Z,17.9
2018-07-20T06:27:04.136Z,18
2018-07-20T06:28:06.128Z,18.1
2018-07-20T06:29:08.515Z,17.9
2018-07-20T06:30:10.512Z,18
2018-07-20T06:31:12.798Z,18.1
2018-07-20T06:32:14.784Z,18.1
2018-07-20T06:33:17.065Z,18.1
2018-07-20T06:34:19.075Z,18.2
2018-07-20T06:35:21.073Z,18.1
2018-07-20T06:36:23.066Z,18.1
2018-07-20T06:37:25.066Z,18.1
2018-07-20T06:38:27.349Z,18.2
2018-07-20T06:39:29.351Z,18.2
2018-07-20T06:40:31.359Z,18.3
2018-07-20T06:41:33.358Z,18.3
2018-07-20T06:42:35.351Z,18.2
2018-07-20T06:43:37.646Z,18.2
2018-07-20T06:44:39.641Z,18.3
2018-07-20T06:45:41.638Z,18.3
2018-07-20T06:46:43.642Z,18.3
2018-07-20T06:47:45.629Z,18.4
2018-07-20T06:48:47.634Z,18.4
2018-07-20T06:49:50.100Z,18.5
2018-07-20T06:50:52.331Z,18.6
2018-07-20T06:51:54.318Z,18.6
2018-07-20T06:52:56.330Z,18.5
2018-07-20T06:53:58.331Z,18.5
2018-07-20T06:55:00.331Z,18.5
2018-07-20T06:56:02.730Z,18.6
2018-07-20T06:57:04.721Z,18.7
2018-07-20T06:58:07.016Z,18.8
2018-07-20T06:59:09.395Z,18.9
2018-07-20T07:00:11.406Z,18.8
2018-07-20T07:01:13.395Z,18.8
2018-07-20T07:02:15.404Z,18.8
2018-07-20T07:03:17.404Z,18.8
2018-07-20T07:04:19.395Z,18.8
2018-07-20T07:05:21.402Z,18.9
2018-07-20T07:06:23.685Z,18.9
2018-07-20T07:07:25.692Z,18.9
2018-07-20T07:08:27.695Z,19
2018-07-20T07:09:30.264Z,19.1
2018-07-20T07:10:32.580Z,19.1
2018-07-20T07:11:34.576Z,19.1
2018-07-20T07:12:36.577Z,19.1
2018-07-20T07:13:38.590Z,19.1
2018-07-20T07:14:40.592Z,19.1
2018-07-20T07:15:42.589Z,19.2
2018-07-20T07:16:44.598Z,19.3
2018-07-20T07:17:46.600Z,19.3
2018-07-20T07:18:48.599Z,19.3
2018-07-20T07:19:50.610Z,19.3
2018-07-20T07:20:52.596Z,19.3
2018-07-20T07:21:54.601Z,19.4
2018-07-20T07:22:56.604Z,19.4
2018-07-20T07:23:58.612Z,19.4
2018-07-20T07:25:00.600Z,19.5
2018-07-20T07:26:03.127Z,19.5
2018-07-20T07:27:05.030Z,19.6
2018-07-20T07:28:07.036Z,19.6
2018-07-20T07:29:09.127Z,19.5
2018-07-20T07:30:11.045Z,19.5
2018-07-20T07:31:13.707Z,19.5
2018-07-20T07:32:15.706Z,19.6
2018-07-20T07:33:18.383Z,19.7
2018-07-20T07:34:20.379Z,19.7
2018-07-20T07:35:22.384Z,19.9
2018-07-20T07:36:24.393Z,20
2018-07-20T07:37:26.381Z,20
2018-07-20T07:38:28.678Z,20
2018-07-20T07:39:30.683Z,20
2018-07-20T07:40:32.681Z,20
2018-07-20T07:41:34.680Z,19.8
2018-07-20T07:42:36.697Z,19.9
2018-07-20T07:43:38.698Z,20
2018-07-20T07:44:40.700Z,20.1
2018-07-20T07:45:42.706Z,20.1
2018-07-20T07:46:45.080Z,20.1
2018-07-20T07:47:47.082Z,20.2
2018-07-20T07:48:49.092Z,20.1
2018-07-20T07:49:51.085Z,20.2
2018-07-20T07:50:53.482Z,20.2
2018-07-20T07:51:55.483Z,20.5
2018-07-20T07:52:57.487Z,20.5
2018-07-20T07:53:59.503Z,20.6
2018-07-20T07:55:02.168Z,20.7
2018-07-20T07:56:04.476Z,20.6
2018-07-20T07:57:06.479Z,20.7
2018-07-20T07:58:08.487Z,20.6
2018-07-20T07:59:10.481Z,20.6
2018-07-20T08:00:12.483Z,20.7
2018-07-20T08:01:14.487Z,20.8
2018-07-20T08:02:16.760Z,20.8
2018-07-20T08:03:18.775Z,20.9
2018-07-20T08:04:20.783Z,20.9
2018-07-20T08:05:22.792Z,21
2018-07-20T08:06:25.174Z,20.8
2018-07-20T08:07:27.256Z,20.9
2018-07-20T08:08:29.197Z,21
2018-07-20T08:09:31.195Z,21
2018-07-20T08:10:33.597Z,21.1
2018-07-20T08:11:35.591Z,21.2
2018-07-20T08:12:37.597Z,21.1
2018-07-20T08:13:39.605Z,21.2
2018-07-20T08:14:41.909Z,21.1
2018-07-20T08:15:44.234Z,21.1
2018-07-20T08:16:46.517Z,21.2
2018-07-20T08:17:48.526Z,21.1
2018-07-20T08:18:50.530Z,21.3
2018-07-20T08:19:52.541Z,21.3
2018-07-20T08:20:54.545Z,21.3
2018-07-20T08:21:56.559Z,21.6
2018-07-20T08:22:58.671Z,21.5
2018-07-20T08:24:00.568Z,21.6
2018-07-20T08:25:02.570Z,21.5
2018-07-20T08:26:04.574Z,21.6
2018-07-20T08:27:06.591Z,21.5
2018-07-20T08:28:08.590Z,21.5
2018-07-20T08:29:10.598Z,21.6
2018-07-20T08:30:12.599Z,21.6
2018-07-20T08:31:14.615Z,21.6
2018-07-20T08:32:16.615Z,21.8
2018-07-20T08:33:18.619Z,22
2018-07-20T08:34:20.624Z,21.9
2018-07-20T08:35:23.004Z,21.7
2018-07-20T08:36:25.019Z,21.8
2018-07-20T08:37:27.022Z,21.8
2018-07-20T08:38:29.312Z,22
2018-07-20T08:39:31.305Z,22.1
2018-07-20T08:40:33.705Z,22.2
2018-07-20T08:41:35.710Z,22.3
2018-07-20T08:42:38.008Z,22.2
2018-07-20T08:43:40.021Z,22.2
2018-07-20T08:44:42.014Z,22.2
2018-07-20T08:45:44.018Z,22.5
2018-07-20T08:46:46.029Z,22.5
2018-07-20T08:47:48.031Z,22.4
2018-07-20T08:48:50.305Z,22.4
2018-07-20T08:49:52.314Z,22.2
2018-07-20T08:50:54.602Z,22.1
2018-07-20T08:51:56.617Z,22.4
2018-07-20T08:52:58.626Z,22.6
2018-07-20T08:54:00.949Z,22.6
2018-07-20T08:55:02.931Z,22.8
2018-07-20T08:56:04.948Z,22.8
2018-07-20T08:57:06.948Z,22.6
2018-07-20T08:58:08.956Z,22.4
2018-07-20T08:59:10.956Z,22.3
2018-07-20T09:00:12.974Z,22.4
2018-07-20T09:01:14.975Z,22.7
2018-07-20T09:02:17.262Z,23
2018-07-20T09:03:19.263Z,23.1
2018-07-20T09:04:21.668Z,23.2
2018-07-20T09:05:23.664Z,23.1
2018-07-20T09:06:25.676Z,23.2
2018-07-20T09:07:27.682Z,23.3
2018-07-20T09:08:29.677Z,23.6
2018-07-20T09:09:31.694Z,23.5
2018-07-20T09:10:33.702Z,23.4
2018-07-20T09:11:35.707Z,23.2
2018-07-20T09:12:37.992Z,23.3
2018-07-20T09:13:40.101Z,23.4
2018-07-20T09:14:42.016Z,23.3
2018-07-20T09:15:44.026Z,23.3
2018-07-20T09:16:46.038Z,23.7
2018-07-20T09:17:48.042Z,23.7
2018-07-20T09:18:50.043Z,23.6
2018-07-20T09:19:52.055Z,23.5
2018-07-20T09:20:54.453Z,23.8
2018-07-20T09:21:56.824Z,23.8
2018-07-20T09:22:58.828Z,24
2018-07-20T09:24:00.834Z,23.6
2018-07-20T09:25:03.125Z,23.4
2018-07-20T09:26:05.142Z,23.4
2018-07-20T09:27:07.151Z,23.6
2018-07-20T09:28:09.149Z,23.5
2018-07-20T09:29:11.173Z,23.5
2018-07-20T09:30:13.457Z,23.5
2018-07-20T09:31:15.851Z,23.5
2018-07-20T09:32:17.859Z,23.9
2018-07-20T09:33:19.858Z,24
2018-07-20T09:34:21.867Z,24.2
2018-07-20T09:35:23.876Z,24.4
2018-07-20T09:36:25.884Z,24.3
2018-07-20T09:37:27.895Z,24.6
2018-07-20T09:38:29.896Z,24.7
2018-07-20T09:39:31.900Z,24.1
2018-07-20T09:40:33.909Z,24.1
2018-07-20T09:41:35.908Z,24.3
2018-07-20T09:42:37.926Z,24
2018-07-20T09:43:40.217Z,24.2
2018-07-20T09:44:42.233Z,24.3
2018-07-20T09:45:44.512Z,24.3
2018-07-20T09:46:46.534Z,24.1
2018-07-20T09:47:48.548Z,24.3
2018-07-20T09:48:50.568Z,24.4
2018-07-20T09:49:52.584Z,24.4
2018-07-20T09:50:54.580Z,24.5
2018-07-20T09:51:56.596Z,24.4
2018-07-20T09:52:58.613Z,24.1
2018-07-20T09:54:00.624Z,24.2
2018-07-20T09:55:03.009Z,23.9
2018-07-20T09:56:05.018Z,24.2
2018-07-20T09:57:07.033Z,24.2
2018-07-20T09:58:09.044Z,24.6
2018-07-20T09:59:11.063Z,24.5
2018-07-20T10:00:13.070Z,24.4
2018-07-20T10:01:15.078Z,24.5
2018-07-20T10:02:17.105Z,24.5
2018-07-20T10:03:19.109Z,24.5
2018-07-20T10:04:21.421Z,24.3
2018-07-20T10:05:23.432Z,24.2
2018-07-20T10:06:25.433Z,24.3
2018-07-20T10:07:27.459Z,24.6
2018-07-20T10:08:29.472Z,24.6
2018-07-20T10:09:31.492Z,24.5
2018-07-20T10:10:33.495Z,24.6
2018-07-20T10:11:35.581Z,24.8
2018-07-20T10:12:37.595Z,24.7
2018-07-20T10:13:39.541Z,24.9
2018-07-20T10:14:41.565Z,24.9
2018-07-20T10:15:43.950Z,25.1
2018-07-20T10:16:45.964Z,25
2018-07-20T10:17:47.975Z,24.9
2018-07-20T10:18:50.301Z,24.7
2018-07-20T10:19:52.577Z,24.9
2018-07-20T10:20:54.905Z,25
2018-07-20T10:21:56.926Z,24.6
2018-07-20T10:22:58.929Z,25
2018-07-20T10:24:00.955Z,24.6
2018-07-20T10:25:02.970Z,24.8
2018-07-20T10:26:04.979Z,24.9
2018-07-20T10:27:07.274Z,24.8
2018-07-20T10:28:09.290Z,25
2018-07-20T10:29:11.309Z,25.1
2018-07-20T10:30:13.323Z,24.9
2018-07-20T10:31:15.346Z,25
2018-07-20T10:32:17.629Z,25
2018-07-20T10:33:19.638Z,25.2
2018-07-20T10:34:21.657Z,25
2018-07-20T10:35:23.658Z,25.5
2018-07-20T10:36:25.677Z,25.3
2018-07-20T10:37:27.691Z,25.3
2018-07-20T10:38:30.376Z,25.4
2018-07-20T10:39:32.397Z,25.2
2018-07-20T10:40:34.418Z,25.2
2018-07-20T10:41:36.713Z,25
2018-07-20T10:42:38.724Z,25
2018-07-20T10:43:41.041Z,25.2
2018-07-20T10:44:43.046Z,24.9
2018-07-20T10:45:45.063Z,25.1
2018-07-20T10:46:47.079Z,25
2018-07-20T10:47:49.371Z,24.9
2018-07-20T10:48:51.781Z,25.1
2018-07-20T10:49:53.798Z,24.9
2018-07-20T10:50:55.819Z,24.8
2018-07-20T10:51:57.827Z,24.9
2018-07-20T10:53:00.130Z,25.2
2018-07-20T10:54:02.534Z,25.1
2018-07-20T10:55:04.553Z,25
2018-07-20T10:56:06.554Z,25.1
2018-07-20T10:57:08.579Z,25.3
2018-07-20T10:58:10.594Z,25.5
2018-07-20T10:59:12.605Z,25.8
2018-07-20T11:00:14.625Z,25.8
2018-07-20T11:01:16.961Z,25.8
2018-07-20T11:02:18.936Z,25.8
2018-07-20T11:03:20.998Z,25.6
2018-07-20T11:04:23.017Z,25.1
2018-07-20T11:05:25.025Z,25.1
2018-07-20T11:06:27.320Z,25
2018-07-20T11:07:29.346Z,25.3
2018-07-20T11:08:31.355Z,25.6
2018-07-20T11:09:33.657Z,26.3
2018-07-20T11:10:35.670Z,26.1
2018-07-20T11:11:37.688Z,26.1
2018-07-20T11:12:40.098Z,25.9
2018-07-20T11:13:42.146Z,25.4
2018-07-20T11:14:44.127Z,25.3
2018-07-20T11:15:46.144Z,25.3
2018-07-20T11:16:48.163Z,25.2
2018-07-20T11:17:50.169Z,25.7
2018-07-20T11:18:52.183Z,25.5
2018-07-20T11:19:54.201Z,25.7
2018-07-20T11:20:56.208Z,26
2018-07-20T11:21:58.236Z,25.7
2018-07-20T11:23:00.254Z,26
2018-07-20T11:24:02.569Z,25.9
2018-07-20T11:25:04.574Z,25.8
2018-07-20T11:26:06.605Z,25.9
2018-07-20T11:27:08.615Z,26
2018-07-20T11:28:10.624Z,25.4
2018-07-20T11:29:12.652Z,25.5
2018-07-20T11:30:14.663Z,25.5
2018-07-20T11:31:16.958Z,25.7
2018-07-20T11:32:18.965Z,25.5
2018-07-20T11:33:20.982Z,25.7
2018-07-20T11:34:23.010Z,25.7
2018-07-20T11:35:25.022Z,25.9
2018-07-20T11:36:27.044Z,26.3
2018-07-20T11:37:29.057Z,26.1
2018-07-20T11:38:31.450Z,26
2018-07-20T11:39:33.469Z,26.1
2018-07-20T11:40:35.496Z,25.7
2018-07-20T11:41:37.778Z,25.7
2018-07-20T11:42:39.803Z,25.7
2018-07-20T11:43:41.814Z,25.7
2018-07-20T11:44:43.831Z,25.8
2018-07-20T11:45:45.855Z,25.8
2018-07-20T11:46:47.869Z,25.8
2018-07-20T11:47:49.881Z,25.8
2018-07-20T11:48:51.897Z,25.9
2018-07-20T11:49:53.924Z,25.8
2018-07-20T11:50:55.933Z,26.1
2018-07-20T11:51:57.950Z,25.7
2018-07-20T11:53:00.248Z,26
2018-07-20T11:54:02.262Z,26.3
2018-07-20T11:55:04.286Z,26.2
2018-07-20T11:56:06.305Z,26.1
2018-07-20T11:57:08.609Z,25.5
2018-07-20T11:58:10.894Z,26
2018-07-20T11:59:12.920Z,26
2018-07-20T12:00:14.941Z,26.2
2018-07-20T12:01:17.627Z,26
2018-07-20T12:02:19.994Z,26.3
2018-07-20T12:03:21.997Z,26.2
2018-07-20T12:04:24.015Z,26.3
2018-07-20T12:05:26.037Z,26.9
2018-07-20T12:06:28.053Z,27
2018-07-20T12:07:30.058Z,27
2018-07-20T12:08:32.073Z,26.9
2018-07-20T12:09:34.477Z,26.6
2018-07-20T12:10:36.491Z,26.5
2018-07-20T12:11:38.497Z,26.6
2018-07-20T12:12:40.514Z,26.4
2018-07-20T12:13:42.540Z,25.9
2018-07-20T12:14:44.548Z,25.8
2018-07-20T12:15:46.570Z,25.7
2018-07-20T12:16:48.592Z,25.6
2018-07-20T12:17:51.186Z,25.2
2018-07-20T12:18:53.235Z,25
2018-07-20T12:19:55.501Z,25.4
2018-07-20T12:20:57.519Z,25.2
2018-07-20T12:21:59.530Z,25.1
2018-07-20T12:23:01.853Z,25.8
2018-07-20T12:24:03.860Z,25.9
2018-07-20T12:25:06.555Z,25.9
2018-07-20T12:26:08.852Z,25.5
2018-07-20T12:27:10.861Z,25.1
2018-07-20T12:28:12.944Z,25.6
2018-07-20T12:29:15.247Z,25.7
2018-07-20T12:30:17.270Z,26.3
2018-07-20T12:31:19.558Z,26.8
2018-07-20T12:32:21.582Z,26.5
2018-07-20T12:33:23.598Z,26.1
2018-07-20T12:34:25.603Z,26.4
2018-07-20T12:35:27.929Z,26.9
2018-07-20T12:36:29.936Z,27
2018-07-20T12:37:31.953Z,27
2018-07-20T12:38:33.972Z,27
2018-07-20T12:39:35.989Z,27.2
2018-07-20T12:40:37.998Z,26.9
2018-07-20T12:41:40.292Z,27.2
2018-07-20T12:42:42.342Z,27.1
2018-07-20T12:43:44.326Z,26.9
2018-07-20T12:44:46.354Z,26.7
2018-07-20T12:45:48.651Z,27.1
2018-07-20T12:46:50.661Z,27.2
2018-07-20T12:47:52.690Z,26.8
2018-07-20T12:48:54.698Z,26.4
2018-07-20T12:49:56.717Z,26.5
2018-07-20T12:50:58.733Z,26.3
2018-07-20T12:52:01.018Z,26.9
2018-07-20T12:53:03.425Z,26.6
2018-07-20T12:54:05.738Z,26.7
2018-07-20T12:55:07.760Z,26.4
2018-07-20T12:56:10.049Z,26.8
2018-07-20T12:57:12.074Z,26.8
2018-07-20T12:58:14.087Z,26.5
2018-07-20T12:59:16.107Z,26.6
2018-07-20T13:00:18.133Z,26.7
2018-07-20T13:01:20.139Z,27.4
2018-07-20T13:02:22.157Z,27.8
2018-07-20T13:03:24.165Z,26.9
2018-07-20T13:04:26.577Z,27
2018-07-20T13:05:28.583Z,27.2
2018-07-20T13:06:30.599Z,27.4
2018-07-20T13:07:32.622Z,27.1
2018-07-20T13:08:34.626Z,27.1
2018-07-20T13:09:36.655Z,27
2018-07-20T13:10:38.676Z,27.2
2018-07-20T13:11:40.684Z,26.9
2018-07-20T13:12:42.701Z,26.5
2018-07-20T13:13:44.733Z,27
2018-07-20T13:14:46.748Z,27
2018-07-20T13:15:48.763Z,26.6
2018-07-20T13:16:50.790Z,26.8
2018-07-20T13:17:53.278Z,26.8
2018-07-20T13:18:55.199Z,26.8
2018-07-20T13:19:57.502Z,26.7
2018-07-20T13:20:59.533Z,26.9
2018-07-20T13:22:01.557Z,27.1
2018-07-20T13:23:03.603Z,27.1
2018-07-20T13:24:05.899Z,27.1
2018-07-20T13:25:08.295Z,26.8
2018-07-20T13:26:10.321Z,26.8
2018-07-20T13:27:12.366Z,27.2
2018-07-20T13:28:14.673Z,27.8
2018-07-20T13:29:16.680Z,26.9
2018-07-20T13:30:18.709Z,27.1
2018-07-20T13:31:20.729Z,27.1
2018-07-20T13:32:22.747Z,27
2018-07-20T13:33:25.063Z,27.7
2018-07-20T13:34:27.960Z,27.9
2018-07-20T13:35:30.351Z,27.3
2018-07-20T13:36:32.378Z,27.1
2018-07-20T13:37:34.693Z,27
2018-07-20T13:38:36.718Z,27.1
2018-07-20T13:39:38.739Z,27
2018-07-20T13:40:41.107Z,26.9
2018-07-20T13:41:43.121Z,27
2018-07-20T13:42:45.278Z,27.1
2018-07-20T13:43:47.584Z,27
2018-07-20T13:44:49.601Z,27.2
2018-07-20T13:45:52.262Z,27.6
2018-07-20T13:46:54.415Z,27.1
2018-07-20T13:47:56.434Z,27
2018-07-20T13:48:58.454Z,26.6
2018-07-20T13:50:00.750Z,26.9
2018-07-20T13:51:02.761Z,27
2018-07-20T13:52:04.779Z,27.6
2018-07-20T13:53:07.736Z,27